Pocola, Oklahoma
Current Conditions -  °F | °C
As of 11:53 AM on Thursday 27 Nov 2014 (Local Time) from KFSM Reporting Station
Clear Clear  
Wind Chill: 39°   Ceiling: Unl
Heat Index: 43°   Visibility: 10mi
Dew Point: 25°   Wind: 7mph
Humidity: 49%   Direction: 280°W
Pressure: 30.54"   Gusts: NA
Location:  35.23°N, 94.48°W
Report Text: KFSM 271753Z 28006KT 10SM CLR 06/M04 A3054 RMK AO2 SLP346 T00611039 10061 21017 58009
Loading
Personal Weather Stations






























Interactive Weather Map New forecast layout! Learn more

10-Day Weather Forecast

Advertisements
Track Severe Weather on mobile